States of Jersey

Home Log in

METAR EGJJ 180420Z AUTO 28003KT 9999 OVC041/// 15/13 Q1018

METAR EGJB 180420Z 24005KT CAVOK 13/13 Q1018

METAR LFRD 180400Z AUTO 35003KT CAVOK 15/13 Q1018 NOSIG

METAR LFRC 180400Z AUTO 00000KT 9999 FEW047 OVC058 12/11 Q1018